createdAt,value
2022-10-06T00:01:22.296Z,14.37
2022-10-06T00:03:23.949Z,14.35
2022-10-06T00:05:25.391Z,14.37
2022-10-06T00:07:26.876Z,14.35
2022-10-06T00:09:28.374Z,14.38
2022-10-06T00:11:29.868Z,14.39
2022-10-06T00:13:32.454Z,14.38
2022-10-06T00:15:34.119Z,14.40
2022-10-06T00:17:35.578Z,14.39
2022-10-06T00:19:37.066Z,14.39
2022-10-06T00:21:38.485Z,14.39
2022-10-06T00:23:39.951Z,14.40
2022-10-06T00:25:42.497Z,14.40
2022-10-06T00:27:47.127Z,14.39
2022-10-06T00:29:48.549Z,14.39
2022-10-06T00:31:49.984Z,14.40
2022-10-06T00:33:51.481Z,14.42
2022-10-06T00:36:00.951Z,14.42
2022-10-06T00:38:02.759Z,14.41
2022-10-06T00:40:09.692Z,14.43
2022-10-06T00:42:26.327Z,14.41
2022-10-06T00:44:27.762Z,14.44
2022-10-06T00:46:46.221Z,14.44
2022-10-06T00:48:51.184Z,14.36
2022-10-06T00:50:58.813Z,14.38
2022-10-06T00:53:00.461Z,14.39
2022-10-06T00:55:04.163Z,14.37
2022-10-06T00:57:06.462Z,14.36
2022-10-06T00:59:13.707Z,14.37
2022-10-06T01:01:15.250Z,14.35
2022-10-06T01:03:21.934Z,14.37
2022-10-06T01:05:29.454Z,14.30
2022-10-06T01:07:31.406Z,14.29
2022-10-06T01:09:33.104Z,14.26
2022-10-06T01:11:37.719Z,14.24
2022-10-06T01:13:41.305Z,14.26
2022-10-06T01:15:51.274Z,14.23
2022-10-06T01:17:57.889Z,14.21
2022-10-06T01:20:04.167Z,14.20
2022-10-06T01:22:08.389Z,14.19
2022-10-06T01:24:09.951Z,14.18
2022-10-06T01:26:14.497Z,14.17
2022-10-06T01:28:16.094Z,14.17
2022-10-06T01:30:23.460Z,14.19
2022-10-06T01:32:27.500Z,14.19
2022-10-06T01:34:29.002Z,14.17
2022-10-06T01:36:30.444Z,14.14
2022-10-06T01:38:32.526Z,14.13
2022-10-06T01:40:34.248Z,14.12
2022-10-06T01:42:36.447Z,14.11
2022-10-06T01:44:37.909Z,14.08
2022-10-06T01:46:39.411Z,14.06
2022-10-06T01:48:40.961Z,14.04
2022-10-06T01:50:42.434Z,14.04
2022-10-06T01:52:43.892Z,14.03
2022-10-06T01:54:45.660Z,14.02
2022-10-06T01:56:47.083Z,14.04
2022-10-06T01:58:49.016Z,14.03
2022-10-06T02:00:51.031Z,14.04
2022-10-06T02:02:52.473Z,14.05
2022-10-06T02:04:53.921Z,14.03
2022-10-06T02:06:55.558Z,14.00
2022-10-06T02:08:57.017Z,13.98
2022-10-06T02:10:58.735Z,13.96
2022-10-06T02:13:00.146Z,13.94
2022-10-06T02:15:02.259Z,13.92
2022-10-06T02:17:03.714Z,13.91
2022-10-06T02:19:06.402Z,13.88
2022-10-06T02:21:20.352Z,13.88
2022-10-06T02:23:21.801Z,13.84
2022-10-06T02:25:23.318Z,13.82
2022-10-06T02:27:24.791Z,13.82
2022-10-06T02:29:26.321Z,13.80
2022-10-06T02:31:27.863Z,13.77
2022-10-06T02:33:30.133Z,13.78
2022-10-06T02:35:31.587Z,13.74
2022-10-06T02:37:33.525Z,13.73
2022-10-06T02:39:35.581Z,13.72
2022-10-06T02:41:37.286Z,13.71
2022-10-06T02:43:38.943Z,13.68
2022-10-06T02:45:40.391Z,13.69
2022-10-06T02:47:41.815Z,13.67
2022-10-06T02:49:43.225Z,13.64
2022-10-06T02:51:44.649Z,13.60
2022-10-06T02:53:48.276Z,13.61
2022-10-06T02:55:49.720Z,13.58
2022-10-06T02:57:51.177Z,13.56
2022-10-06T02:59:52.633Z,13.54
2022-10-06T03:01:55.194Z,13.51
2022-10-06T03:03:56.892Z,13.49
2022-10-06T03:06:22.850Z,13.48
2022-10-06T03:08:24.296Z,13.47
2022-10-06T03:10:25.737Z,13.45
2022-10-06T03:12:27.355Z,13.45
2022-10-06T03:14:28.774Z,13.44
2022-10-06T03:16:37.137Z,13.42
2022-10-06T03:18:38.570Z,13.41
2022-10-06T03:20:40.016Z,13.40
2022-10-06T03:22:41.458Z,13.41
2022-10-06T03:24:42.904Z,13.39
2022-10-06T03:26:47.539Z,13.37
2022-10-06T03:28:49.347Z,13.34
2022-10-06T03:30:50.861Z,13.33
2022-10-06T03:32:52.756Z,13.33
2022-10-06T03:34:54.249Z,13.29
2022-10-06T03:36:55.876Z,13.27
2022-10-06T03:38:57.289Z,13.28
2022-10-06T03:41:07.629Z,13.28
2022-10-06T03:43:09.713Z,13.24
2022-10-06T03:45:11.244Z,13.24
2022-10-06T03:47:16.962Z,13.21
2022-10-06T03:49:18.952Z,13.18
2022-10-06T03:51:23.276Z,13.17
2022-10-06T03:53:28.414Z,13.15
2022-10-06T03:55:29.859Z,13.13
2022-10-06T03:57:31.266Z,13.12
2022-10-06T03:59:34.266Z,13.11
2022-10-06T04:01:47.480Z,13.10
2022-10-06T04:03:48.962Z,13.05
2022-10-06T04:05:55.719Z,13.05
2022-10-06T04:07:57.334Z,13.01
2022-10-06T04:09:58.752Z,13.00
2022-10-06T04:12:00.224Z,12.98
2022-10-06T04:14:04.423Z,12.97
2022-10-06T04:16:18.130Z,12.96
2022-10-06T04:18:19.623Z,12.94
2022-10-06T04:20:21.055Z,12.93
2022-10-06T04:22:22.475Z,12.89
2022-10-06T04:24:23.987Z,12.87
2022-10-06T04:26:33.663Z,12.84
2022-10-06T04:28:38.130Z,12.83
2022-10-06T04:30:39.663Z,12.78
2022-10-06T04:32:41.085Z,12.75
2022-10-06T04:34:42.523Z,12.74
2022-10-06T04:36:44.118Z,12.73
2022-10-06T04:38:45.588Z,12.72
2022-10-06T04:40:46.999Z,12.71
2022-10-06T04:42:49.317Z,12.69
2022-10-06T04:44:50.730Z,12.66
2022-10-06T04:46:55.217Z,12.66
2022-10-06T04:48:57.138Z,12.64
2022-10-06T04:51:03.925Z,12.64
2022-10-06T04:53:05.447Z,12.63
2022-10-06T04:55:08.291Z,12.63
2022-10-06T04:57:09.818Z,12.60
2022-10-06T04:59:11.323Z,12.59
2022-10-06T05:01:16.624Z,12.59
2022-10-06T05:03:18.226Z,12.57
2022-10-06T05:05:19.992Z,12.57
2022-10-06T05:07:21.413Z,12.57
2022-10-06T05:09:22.929Z,12.54
2022-10-06T05:11:27.299Z,12.55
2022-10-06T05:13:28.897Z,12.54
2022-10-06T05:15:30.436Z,12.53
2022-10-06T05:17:31.881Z,12.53
2022-10-06T05:19:33.330Z,12.50
2022-10-06T05:21:35.048Z,12.48
2022-10-06T05:23:38.214Z,12.48
2022-10-06T05:25:39.778Z,12.45
2022-10-06T05:27:41.199Z,12.44
2022-10-06T05:29:42.613Z,12.43
2022-10-06T05:31:45.346Z,12.44
2022-10-06T05:33:47.563Z,12.40
2022-10-06T05:35:53.655Z,12.40
2022-10-06T05:37:55.091Z,12.38
2022-10-06T05:39:56.523Z,12.38
2022-10-06T05:41:57.972Z,12.37
2022-10-06T05:43:59.624Z,12.37
2022-10-06T05:46:04.489Z,12.37
2022-10-06T05:48:06.188Z,12.37
2022-10-06T05:50:07.989Z,12.37
2022-10-06T05:52:09.440Z,12.35
2022-10-06T05:54:10.860Z,12.35
2022-10-06T05:56:17.979Z,12.35
2022-10-06T05:58:19.430Z,12.34
2022-10-06T06:00:20.848Z,12.35
2022-10-06T06:02:22.331Z,12.35
2022-10-06T06:04:23.802Z,12.35
2022-10-06T06:06:33.308Z,12.37
2022-10-06T06:08:36.449Z,12.38
2022-10-06T06:10:38.159Z,12.38
2022-10-06T06:12:39.619Z,12.39
2022-10-06T06:14:59.735Z,12.38
2022-10-06T06:17:01.223Z,12.39
2022-10-06T06:19:03.081Z,12.39
2022-10-06T06:21:07.396Z,12.40
2022-10-06T06:23:09.600Z,12.42
2022-10-06T06:25:12.923Z,12.42
2022-10-06T06:27:14.361Z,12.43
2022-10-06T06:29:15.781Z,12.44
2022-10-06T06:31:23.186Z,12.48
2022-10-06T06:33:24.644Z,12.47
2022-10-06T06:35:26.105Z,12.50
2022-10-06T06:37:31.391Z,12.52
2022-10-06T06:39:32.811Z,12.53
2022-10-06T06:41:39.820Z,12.56
2022-10-06T06:43:42.028Z,12.56
2022-10-06T06:45:43.503Z,12.59
2022-10-06T06:47:48.068Z,12.60
2022-10-06T06:49:49.513Z,12.63
2022-10-06T06:51:51.131Z,12.66
2022-10-06T06:53:53.218Z,12.68
2022-10-06T06:55:54.664Z,12.68
2022-10-06T06:57:56.105Z,12.71
2022-10-06T07:00:02.589Z,12.75
2022-10-06T07:02:04.612Z,12.75
2022-10-06T07:04:06.298Z,12.77
2022-10-06T07:06:10.564Z,12.80
2022-10-06T07:08:16.528Z,12.82
2022-10-06T07:10:17.963Z,12.84
2022-10-06T07:12:19.445Z,12.86
2022-10-06T07:14:22.642Z,12.86
2022-10-06T07:16:43.579Z,12.88
2022-10-06T07:19:04.230Z,12.92
2022-10-06T07:21:29.075Z,12.94
2022-10-06T07:23:49.032Z,12.98
2022-10-06T07:25:53.096Z,13.00
2022-10-06T07:27:54.618Z,13.03
2022-10-06T07:29:56.831Z,13.06
2022-10-06T07:31:58.588Z,13.08
2022-10-06T07:34:02.493Z,13.13
2022-10-06T07:36:04.094Z,13.18
2022-10-06T07:38:08.015Z,13.22
2022-10-06T07:40:10.099Z,13.27
2022-10-06T07:42:13.227Z,13.30
2022-10-06T07:44:14.657Z,13.33
2022-10-06T07:46:19.275Z,13.35
2022-10-06T07:48:23.386Z,13.39
2022-10-06T07:50:25.943Z,13.43
2022-10-06T07:52:30.425Z,13.48
2022-10-06T07:54:31.902Z,13.51
2022-10-06T07:56:33.343Z,13.56
2022-10-06T07:58:37.379Z,13.57
2022-10-06T08:00:38.840Z,13.58
2022-10-06T08:02:40.304Z,13.62
2022-10-06T08:04:41.833Z,13.66
2022-10-06T08:06:43.247Z,13.69
2022-10-06T08:08:50.235Z,13.75
2022-10-06T08:10:56.369Z,13.79
2022-10-06T08:12:57.895Z,13.79
2022-10-06T08:15:06.833Z,13.82
2022-10-06T08:17:09.170Z,13.87
2022-10-06T08:19:11.635Z,13.93
2022-10-06T08:21:15.929Z,13.97
2022-10-06T08:23:17.362Z,13.97
2022-10-06T08:25:19.343Z,14.00
2022-10-06T08:27:23.344Z,14.05
2022-10-06T08:29:24.791Z,14.08
2022-10-06T08:31:26.303Z,14.14
2022-10-06T08:33:27.750Z,14.20
2022-10-06T08:35:31.144Z,14.23
2022-10-06T08:37:32.588Z,14.24
2022-10-06T08:39:34.048Z,14.25
2022-10-06T08:41:44.716Z,14.26
2022-10-06T08:43:53.677Z,14.27
2022-10-06T08:46:00.936Z,14.27
2022-10-06T08:48:07.121Z,14.28
2022-10-06T08:50:12.853Z,14.33
2022-10-06T08:52:22.419Z,14.37
2022-10-06T08:54:31.221Z,14.42
2022-10-06T08:56:44.951Z,14.49
2022-10-06T08:58:53.702Z,14.57
2022-10-06T09:01:00.883Z,14.60
2022-10-06T09:03:03.846Z,14.61
2022-10-06T09:05:06.858Z,14.64
2022-10-06T09:07:15.403Z,14.69
2022-10-06T09:09:54.487Z,14.71
2022-10-06T09:12:34.509Z,14.71
2022-10-06T09:14:49.521Z,14.75
2022-10-06T09:17:00.765Z,14.80
2022-10-06T09:19:14.009Z,14.81
2022-10-06T09:21:24.381Z,14.83
2022-10-06T09:23:49.623Z,14.80
2022-10-06T09:25:51.092Z,14.86
2022-10-06T09:27:58.638Z,14.92
2022-10-06T09:30:02.076Z,15.02
2022-10-06T09:32:03.613Z,15.13
2022-10-06T09:34:05.283Z,15.25
2022-10-06T09:36:09.780Z,15.31
2022-10-06T09:38:11.578Z,15.36
2022-10-06T09:40:51.174Z,15.39
2022-10-06T09:42:53.515Z,15.48
2022-10-06T09:45:23.782Z,15.53
2022-10-06T09:47:37.145Z,15.50
2022-10-06T09:49:38.632Z,15.49
2022-10-06T09:51:40.037Z,15.46
2022-10-06T09:53:42.842Z,15.46
2022-10-06T09:55:51.359Z,15.45
2022-10-06T09:57:55.928Z,15.46
2022-10-06T10:00:00.062Z,15.50
2022-10-06T10:02:03.926Z,15.54
2022-10-06T10:04:20.476Z,15.57
2022-10-06T10:06:28.044Z,15.60
2022-10-06T10:08:32.333Z,15.58
2022-10-06T10:10:35.954Z,15.55
2022-10-06T10:12:37.412Z,15.58
2022-10-06T10:14:39.005Z,15.57
2022-10-06T10:16:40.503Z,15.62
2022-10-06T10:18:46.853Z,15.69
2022-10-06T10:20:55.682Z,15.77
2022-10-06T10:23:20.833Z,15.81
2022-10-06T10:25:36.268Z,15.84
2022-10-06T10:27:47.070Z,15.89
2022-10-06T10:30:01.695Z,16.01
2022-10-06T10:32:26.392Z,16.17
2022-10-06T10:34:59.118Z,16.37
2022-10-06T10:37:19.419Z,16.53
2022-10-06T10:39:46.980Z,16.74
2022-10-06T10:41:53.262Z,16.95
2022-10-06T10:44:10.334Z,17.15
2022-10-06T10:46:16.933Z,17.31
2022-10-06T10:48:27.519Z,17.40
2022-10-06T10:50:48.609Z,17.64
2022-10-06T10:52:53.414Z,18.02
2022-10-06T10:55:17.876Z,18.29
2022-10-06T10:57:22.482Z,18.66
2022-10-06T10:59:31.040Z,19.03
2022-10-06T11:01:41.202Z,19.35
2022-10-06T11:03:43.297Z,19.55
2022-10-06T11:06:06.115Z,19.74
2022-10-06T11:08:23.065Z,19.90
2022-10-06T11:10:48.321Z,20.11
2022-10-06T11:13:14.446Z,20.23
2022-10-06T11:15:42.144Z,20.30
2022-10-06T11:17:50.259Z,20.57
2022-10-06T11:20:08.657Z,20.72
2022-10-06T11:22:16.073Z,20.64
2022-10-06T11:24:43.837Z,20.90
2022-10-06T11:27:18.117Z,21.27
2022-10-06T11:29:30.753Z,21.44
2022-10-06T11:32:01.568Z,21.53
2022-10-06T11:34:06.326Z,21.51
2022-10-06T11:36:15.410Z,21.00
2022-10-06T11:38:25.797Z,20.79
2022-10-06T11:40:38.954Z,20.36
2022-10-06T11:42:50.509Z,19.96
2022-10-06T11:45:00.041Z,19.89
2022-10-06T11:47:07.383Z,19.71
2022-10-06T11:49:30.769Z,19.47
2022-10-06T11:51:32.339Z,19.50
2022-10-06T11:53:40.052Z,19.49
2022-10-06T11:55:41.540Z,19.48
2022-10-06T11:58:23.800Z,19.50
2022-10-06T12:00:32.302Z,19.46
2022-10-06T12:02:33.932Z,19.41
2022-10-06T12:04:35.711Z,19.23
2022-10-06T12:06:46.269Z,19.04
2022-10-06T12:08:47.725Z,18.91
2022-10-06T12:10:50.671Z,18.77
2022-10-06T12:13:31.811Z,18.61
2022-10-06T12:18:21.886Z,18.41
2022-10-06T12:20:42.319Z,18.38
2022-10-06T12:23:01.823Z,18.33
2022-10-06T12:25:14.525Z,18.36
2022-10-06T12:27:35.556Z,18.35
2022-10-06T12:29:46.979Z,18.37
2022-10-06T12:32:14.498Z,18.37
2022-10-06T12:34:41.635Z,18.16
2022-10-06T12:36:45.127Z,18.09
2022-10-06T12:39:10.687Z,18.06
2022-10-06T12:41:13.739Z,18.00
2022-10-06T12:43:18.002Z,17.95
2022-10-06T12:45:22.396Z,17.94
2022-10-06T12:47:34.953Z,17.86
2022-10-06T12:49:58.559Z,17.81
2022-10-06T12:52:09.867Z,17.76
2022-10-06T12:54:20.443Z,17.77
2022-10-06T12:56:31.843Z,17.74
2022-10-06T12:58:34.084Z,17.74
2022-10-06T13:00:40.964Z,17.63
2022-10-06T13:02:44.305Z,17.54
2022-10-06T13:04:54.058Z,17.53
2022-10-06T13:06:55.662Z,17.56
2022-10-06T13:09:13.762Z,17.57
2022-10-06T13:11:26.375Z,17.54
2022-10-06T13:13:28.182Z,17.50
2022-10-06T13:15:35.977Z,17.49
2022-10-06T13:17:43.976Z,17.51
2022-10-06T13:19:45.469Z,17.47
2022-10-06T13:21:47.105Z,17.45
2022-10-06T13:23:49.206Z,17.41
2022-10-06T13:25:55.693Z,17.40
2022-10-06T13:27:57.202Z,17.43
2022-10-06T13:30:12.421Z,17.46
2022-10-06T13:32:18.632Z,17.46
2022-10-06T13:34:43.216Z,17.42
2022-10-06T13:36:50.609Z,17.42
2022-10-06T13:38:53.250Z,17.43
2022-10-06T13:41:15.187Z,17.41
2022-10-06T13:43:18.752Z,17.39
2022-10-06T13:45:20.708Z,17.37
2022-10-06T13:47:25.497Z,17.38
2022-10-06T13:49:49.713Z,17.39
2022-10-06T13:51:56.857Z,17.39
2022-10-06T13:54:01.035Z,17.34
2022-10-06T13:56:02.483Z,17.30
2022-10-06T13:58:06.811Z,17.33
2022-10-06T14:00:23.117Z,17.35
2022-10-06T14:02:32.392Z,17.33
2022-10-06T14:04:36.012Z,17.31
2022-10-06T14:06:53.537Z,17.29
2022-10-06T14:08:57.767Z,17.25
2022-10-06T14:11:03.632Z,17.26
2022-10-06T14:13:08.802Z,17.31
2022-10-06T14:15:20.449Z,17.32
2022-10-06T14:17:28.316Z,17.33
2022-10-06T14:19:36.206Z,17.33
2022-10-06T14:21:41.914Z,17.31
2022-10-06T14:23:48.462Z,17.32
2022-10-06T14:25:49.880Z,17.31
2022-10-06T14:27:52.476Z,17.28
2022-10-06T14:29:56.093Z,17.28
2022-10-06T14:32:16.074Z,17.27
2022-10-06T14:34:19.915Z,17.28
2022-10-06T14:36:25.632Z,17.28
2022-10-06T14:38:27.047Z,17.24
2022-10-06T14:40:28.506Z,17.23
2022-10-06T14:42:29.927Z,17.24
2022-10-06T14:44:31.440Z,17.25
2022-10-06T14:46:33.537Z,17.25
2022-10-06T14:48:35.036Z,17.24
2022-10-06T14:50:36.641Z,17.22
2022-10-06T14:52:39.092Z,17.22
2022-10-06T14:54:42.625Z,17.23
2022-10-06T14:56:44.065Z,17.22
2022-10-06T14:58:45.956Z,17.19
2022-10-06T15:00:47.374Z,17.16
2022-10-06T15:02:48.950Z,17.17
2022-10-06T15:04:50.497Z,17.14
2022-10-06T15:07:10.605Z,17.10
2022-10-06T15:09:12.211Z,17.06
2022-10-06T15:11:13.611Z,17.02
2022-10-06T15:13:15.058Z,17.01
2022-10-06T15:15:16.622Z,16.98
2022-10-06T15:17:18.101Z,16.99
2022-10-06T15:19:19.561Z,16.98
2022-10-06T15:21:21.501Z,16.95
2022-10-06T15:23:22.926Z,16.94
2022-10-06T15:25:42.955Z,16.93
2022-10-06T15:28:02.844Z,16.90
2022-10-06T15:30:04.846Z,16.88
2022-10-06T15:32:06.820Z,16.88
2022-10-06T15:34:11.878Z,16.88
2022-10-06T15:36:18.974Z,16.87
2022-10-06T15:38:21.344Z,16.81
2022-10-06T15:40:22.797Z,16.77
2022-10-06T15:42:25.248Z,16.78
2022-10-06T15:44:26.912Z,16.78
2022-10-06T15:46:38.032Z,16.76
2022-10-06T15:48:41.164Z,16.75
2022-10-06T15:50:42.583Z,16.75
2022-10-06T15:52:44.007Z,16.72
2022-10-06T15:54:49.687Z,16.73
2022-10-06T15:56:54.071Z,16.75
2022-10-06T15:58:55.537Z,16.72
2022-10-06T16:00:57.122Z,16.72
2022-10-06T16:02:58.646Z,16.67
2022-10-06T16:05:02.676Z,16.64
2022-10-06T16:07:14.887Z,16.64
2022-10-06T16:09:19.467Z,16.57
2022-10-06T16:11:20.920Z,16.52
2022-10-06T16:13:22.393Z,16.46
2022-10-06T16:15:23.850Z,16.41
2022-10-06T16:17:25.252Z,16.33
2022-10-06T16:19:29.483Z,16.32
2022-10-06T16:21:32.170Z,16.31
2022-10-06T16:23:33.582Z,16.31
2022-10-06T16:25:35.006Z,16.28
2022-10-06T16:27:36.436Z,16.21
2022-10-06T16:29:37.834Z,16.13
2022-10-06T16:31:39.672Z,16.07
2022-10-06T16:33:41.363Z,15.97
2022-10-06T16:35:42.798Z,15.89
2022-10-06T16:37:49.645Z,15.84
2022-10-06T16:39:51.797Z,15.79
2022-10-06T16:41:53.992Z,15.76
2022-10-06T16:43:55.451Z,15.71
2022-10-06T16:46:01.920Z,15.64
2022-10-06T16:48:04.011Z,15.59
2022-10-06T16:50:05.834Z,15.55
2022-10-06T16:52:07.257Z,15.46
2022-10-06T16:54:13.487Z,15.43
2022-10-06T16:56:21.591Z,15.37
2022-10-06T16:58:23.050Z,15.29
2022-10-06T17:00:25.817Z,15.25
2022-10-06T17:02:27.388Z,15.16
2022-10-06T17:04:29.014Z,15.10
2022-10-06T17:06:31.872Z,15.03
2022-10-06T17:08:33.706Z,14.94
2022-10-06T17:10:35.163Z,14.83
2022-10-06T17:12:36.837Z,14.74
2022-10-06T17:14:38.487Z,14.65
2022-10-06T17:16:42.226Z,14.62
2022-10-06T17:18:47.393Z,14.57
2022-10-06T17:20:59.865Z,14.53
2022-10-06T17:23:01.289Z,14.51
2022-10-06T17:25:02.740Z,14.46
2022-10-06T17:27:04.961Z,14.43
2022-10-06T17:29:18.174Z,14.39
2022-10-06T17:31:22.609Z,14.34
2022-10-06T17:33:24.092Z,14.28
2022-10-06T17:35:25.630Z,14.22
2022-10-06T17:37:27.233Z,14.20
2022-10-06T17:39:28.928Z,14.16
2022-10-06T17:41:33.283Z,14.13
2022-10-06T17:43:39.224Z,14.09
2022-10-06T17:45:40.722Z,14.04
2022-10-06T17:47:42.206Z,13.99
2022-10-06T17:49:44.259Z,13.94
2022-10-06T17:51:45.692Z,13.91
2022-10-06T17:53:49.934Z,13.87
2022-10-06T17:55:51.410Z,13.80
2022-10-06T17:57:52.828Z,13.74
2022-10-06T17:59:55.368Z,13.70
2022-10-06T18:01:59.713Z,13.65
2022-10-06T18:04:03.863Z,13.58
2022-10-06T18:06:06.982Z,13.55
2022-10-06T18:08:10.142Z,13.50
2022-10-06T18:10:30.285Z,13.47
2022-10-06T18:12:36.094Z,13.43
2022-10-06T18:14:37.523Z,13.38
2022-10-06T18:16:41.931Z,13.34
2022-10-06T18:18:48.986Z,13.30
2022-10-06T18:20:50.456Z,13.27
2022-10-06T18:22:53.017Z,13.24
2022-10-06T18:24:59.105Z,13.23
2022-10-06T18:27:01.206Z,13.20
2022-10-06T18:29:03.391Z,13.19
2022-10-06T18:31:05.341Z,13.15
2022-10-06T18:37:53.173Z,13.02
2022-10-06T18:39:57.859Z,12.98
2022-10-06T18:42:02.819Z,12.96
2022-10-06T18:44:04.815Z,12.94
2022-10-06T18:46:26.493Z,12.90
2022-10-06T18:48:46.588Z,12.83
2022-10-06T18:50:59.306Z,12.79
2022-10-06T18:53:01.586Z,12.75
2022-10-06T18:55:03.088Z,12.73
2022-10-06T18:57:04.515Z,12.69
2022-10-06T18:59:13.228Z,12.68
2022-10-06T19:01:15.794Z,12.55
2022-10-06T19:03:17.389Z,12.57
2022-10-06T19:05:19.066Z,12.56
2022-10-06T19:07:20.491Z,12.53
2022-10-06T19:09:24.568Z,12.49
2022-10-06T19:11:50.123Z,12.47
2022-10-06T19:13:53.588Z,12.42
2022-10-06T19:15:55.330Z,12.39
2022-10-06T19:17:56.819Z,12.36
2022-10-06T19:19:58.249Z,12.34
2022-10-06T19:22:02.648Z,12.32
2022-10-06T19:24:05.351Z,12.30
2022-10-06T19:26:08.920Z,12.24
2022-10-06T19:28:10.430Z,12.21
2022-10-06T19:30:14.499Z,12.19
2022-10-06T19:32:19.557Z,12.17
2022-10-06T19:34:21.941Z,12.15
2022-10-06T19:36:23.534Z,12.13
2022-10-06T19:38:25.445Z,12.08
2022-10-06T19:40:27.369Z,12.05
2022-10-06T19:42:47.448Z,12.04
2022-10-06T19:44:49.054Z,12.01
2022-10-06T19:46:50.537Z,12.01
2022-10-06T19:48:56.493Z,11.98
2022-10-06T19:50:58.287Z,11.95
2022-10-06T19:53:00.344Z,11.93
2022-10-06T19:55:01.852Z,11.92
2022-10-06T19:57:05.741Z,11.91
2022-10-06T19:59:12.036Z,11.89
2022-10-06T20:01:14.331Z,11.88
2022-10-06T20:03:15.817Z,11.85
2022-10-06T20:05:17.767Z,11.84
2022-10-06T20:07:21.649Z,11.83
2022-10-06T20:09:23.490Z,11.80
2022-10-06T20:11:24.921Z,11.75
2022-10-06T20:13:26.351Z,11.73
2022-10-06T20:15:27.797Z,11.71
2022-10-06T20:17:29.380Z,11.68
2022-10-06T20:19:30.964Z,11.68
2022-10-06T20:21:34.868Z,11.64
2022-10-06T20:23:36.452Z,11.63
2022-10-06T20:25:37.901Z,11.61
2022-10-06T20:27:39.400Z,11.59
2022-10-06T20:29:40.844Z,11.58
2022-10-06T20:31:45.309Z,11.56
2022-10-06T20:33:49.363Z,11.54
2022-10-06T20:35:50.819Z,11.50
2022-10-06T20:37:52.259Z,11.48
2022-10-06T20:40:12.100Z,11.48
2022-10-06T20:42:15.327Z,11.45
2022-10-06T20:44:17.023Z,11.43
2022-10-06T20:46:18.504Z,11.41
2022-10-06T20:48:20.151Z,11.35
2022-10-06T20:50:21.579Z,11.32
2022-10-06T20:52:24.146Z,11.30
2022-10-06T20:54:28.006Z,11.28
2022-10-06T20:56:30.582Z,11.26
2022-10-06T20:58:32.439Z,11.25
2022-10-06T21:00:34.091Z,11.23
2022-10-06T21:02:35.562Z,11.22
2022-10-06T21:04:37.111Z,11.20
2022-10-06T21:06:38.990Z,11.19
2022-10-06T21:08:43.823Z,11.17
2022-10-06T21:10:45.995Z,11.15
2022-10-06T21:12:48.016Z,11.13
2022-10-06T21:14:49.602Z,11.10
2022-10-06T21:16:51.806Z,11.09
2022-10-06T21:18:53.386Z,11.05
2022-10-06T21:20:56.352Z,11.02
2022-10-06T21:22:57.738Z,11.00
2022-10-06T21:24:59.191Z,10.98
2022-10-06T21:27:00.614Z,10.97
2022-10-06T21:29:02.119Z,10.96
2022-10-06T21:31:05.685Z,10.95
2022-10-06T21:33:07.108Z,10.92
2022-10-06T21:35:09.100Z,10.89
2022-10-06T21:37:10.514Z,10.87
2022-10-06T21:39:13.085Z,10.83
2022-10-06T21:41:34.815Z,10.79
2022-10-06T21:43:36.285Z,10.74
2022-10-06T21:45:39.096Z,10.72
2022-10-06T21:47:40.502Z,10.70
2022-10-06T21:49:41.926Z,10.69
2022-10-06T21:51:45.731Z,10.69
2022-10-06T21:53:47.763Z,10.67
2022-10-06T21:55:53.798Z,10.65
2022-10-06T21:57:55.227Z,10.60
2022-10-06T21:59:56.626Z,10.57
2022-10-06T22:01:58.157Z,10.58
2022-10-06T22:04:00.607Z,10.58
2022-10-06T22:06:06.804Z,10.58
2022-10-06T22:08:08.195Z,10.58
2022-10-06T22:10:09.695Z,10.56
2022-10-06T22:12:11.086Z,10.54
2022-10-06T22:14:15.338Z,10.54
2022-10-06T22:16:21.611Z,10.54
2022-10-06T22:18:23.079Z,10.51
2022-10-06T22:20:24.508Z,10.50
2022-10-06T22:22:25.902Z,10.48
2022-10-06T22:24:27.438Z,10.44
2022-10-06T22:26:31.506Z,10.40
2022-10-06T22:28:33.003Z,10.33
2022-10-06T22:30:34.463Z,10.29
2022-10-06T22:32:35.894Z,10.23
2022-10-06T22:34:37.987Z,10.21
2022-10-06T22:36:39.882Z,10.19
2022-10-06T22:38:41.578Z,10.18
2022-10-06T22:40:43.043Z,10.15
2022-10-06T22:42:44.455Z,10.10
2022-10-06T22:44:45.926Z,10.06
2022-10-06T22:46:47.555Z,10.03
2022-10-06T22:48:49.027Z,10.00
2022-10-06T22:50:51.121Z,9.98
2022-10-06T22:52:52.523Z,9.94
2022-10-06T22:54:53.919Z,9.92
2022-10-06T22:56:55.963Z,9.90
2022-10-06T22:59:00.466Z,9.87
2022-10-06T23:01:12.942Z,9.86
2022-10-06T23:03:14.447Z,9.83
2022-10-06T23:05:16.080Z,9.80
2022-10-06T23:07:17.506Z,9.77
2022-10-06T23:09:18.902Z,9.74
2022-10-06T23:11:21.740Z,9.75
2022-10-06T23:13:23.137Z,9.72
2022-10-06T23:15:25.827Z,9.71
2022-10-06T23:17:27.238Z,9.68
2022-10-06T23:19:28.626Z,9.66
2022-10-06T23:21:30.099Z,9.64
2022-10-06T23:23:31.970Z,9.64
2022-10-06T23:25:37.568Z,9.63
2022-10-06T23:27:39.116Z,9.59
2022-10-06T23:29:40.507Z,9.58
2022-10-06T23:31:42.020Z,9.55
2022-10-06T23:33:43.482Z,9.54
2022-10-06T23:35:44.865Z,9.50
2022-10-06T23:37:46.894Z,9.47
2022-10-06T23:39:48.548Z,9.42
2022-10-06T23:41:49.956Z,9.39
2022-10-06T23:43:51.691Z,9.35
2022-10-06T23:45:53.262Z,9.34
2022-10-06T23:47:54.731Z,9.31
2022-10-06T23:49:56.122Z,9.32
2022-10-06T23:51:57.614Z,9.32
2022-10-06T23:53:59.010Z,9.31
2022-10-06T23:56:00.482Z,9.31
2022-10-06T23:58:01.892Z,9.31
